Pagina principală
METAR-TAF:

METAR-TAF

Aeroporturi :

Reykjavík, Islanda

Latitudine: 64-08N, longitudine: 021-54W, elevație: 54 m

Observații meteo curente

Raportul a fost făcut în urmă cu 1 oră și 7 de minute, la 05:00 UTC
Vânt 3 kt din direcții variabile
Temperatură -3°C
Umiditate 100%
Presiune 973 hPa
Vizibilitate de 10 km sau mai mult
nu există nori sub 1.500 m și nici cumulonimbus

METAR: BIRK 230500Z VRB03KT CAVOK M03/M03 Q0973

Ora: 06:07 (06:07 UTC)

Prognoză

Raportul a fost făcut în urmă cu 2 ore și 1 de minute, la 04:06 UTC
Prognoză valabilă de la 23 ora 06 UTC la 24 ora 06 UTC
Vânt 7 kt de la Est
Vizibilitate de 10 km sau mai mult
nu există nori sub 1.500 m și nici cumulonimbus

TAF: BIRK 230406Z 2306/2406 09007KT CAVOK TX03/2314Z TNM04/2406Z

Observații și prognoze meteo pentru peste 4.000 de aeroporturi (rapoarte METAR și TAF).

Stațiile disponibile sunt reprezentate pe hartă prin puncte galbene și roșii.

Țineți indicatorul mouse-ului pe punctul dorit pentru a vedea denumirea stației.

Apoi, faceți clic pentru a vedea observațiile și prognozele meteorologice.

Pentru a schimba harta: Pentru mărire, faceți clic pe butoanele verzi cu cruce neagră; pentru micșorare, pe butonul verde cu o liniuță; pentru hărți învecinate, pe săgețile verzi.


METAR-TAF: